Time;durP1;ratioP1;P1;durP2;ratioP2;P2;SDS_P1;SDS_P2;PMS_P1;PMS_P2;Temp;Humidity;BMP_temperature;BMP_pressure;BME280_temperature;BME280_humidity;BME280_pressure;Samples;Min_cycle;Max_cycle;Signal;HPM_P1;HPM_P2
2022/12/10 00:01:03;;;;;;;;;;;;;;;;;;5130883;27;20335;-61
2022/12/10 00:03:29;;;;;;;;;;;;;;;;;;5149717;27;19927;-60
2022/12/10 00:05:55;;;;;;;;;;;;;;;;;;5149907;27;19927;-62
2022/12/10 00:08:21;;;;;;;;;;;;;;;;;;5126084;27;19970;-61
2022/12/10 00:10:46;;;;;;;;;;;;;;;;;;5132857;27;19971;-61
2022/12/10 00:13:12;;;;;;;;;;;;;;;;;;5133487;27;20018;-60
2022/12/10 00:15:38;;;;;;;;;;;;;;;;;;5137908;27;20304;-61
2022/12/10 00:18:04;;;;;;;;;;;;;;;;;;5137712;27;19923;-61
2022/12/10 00:20:30;;;;;;;;;;;;;;;;;;5134376;27;19927;-61
2022/12/10 00:22:56;;;;;;;;;;;;;;;;;;5134033;27;19927;-60
2022/12/10 00:25:22;;;;;;;;;;;;;;;;;;5139392;27;19927;-60
2022/12/10 00:27:48;;;;;;;;;;;;;;;;;;5130825;27;20382;-60
2022/12/10 00:30:14;;;;;;;;;;;;;;;;;;5139181;27;19966;-60
2022/12/10 00:32:39;;;;;;;;;;;;;;;;;;5137189;27;20053;-60
2022/12/10 00:35:05;;;;;;;;;;;;;;;;;;5137505;27;19923;-61
2022/12/10 00:37:31;;;;;;;;;;;;;;;;;;5132487;27;19927;-60
2022/12/10 00:39:57;;;;;;;;;;;;;;;;;;5136571;27;19924;-60
2022/12/10 00:42:23;;;;;;;;;;;;;;;;;;5135546;27;20361;-60
2022/12/10 00:44:49;;;;;;;;;;;;;;;;;;5133019;27;19927;-60
2022/12/10 00:47:15;;;;;;;;;;;;;;;;;;5133094;27;19924;-60
2022/12/10 00:49:41;;;;;;;;;;;;;;;;;;5131339;27;19931;-60
2022/12/10 00:52:07;;;;;;;;;;;;;;;;;;5134705;27;19946;-59
2022/12/10 00:54:33;;;;;;;;;;;;;;;;;;5135715;27;20076;-62
2022/12/10 00:56:59;;;;;;;;;;;;;;;;;;5133871;27;20813;-61
2022/12/10 00:59:24;;;;;;;;;;;;;;;;;;5126639;27;19930;-61
2022/12/10 01:01:50;;;;;;;;;;;;;;;;;;5127537;27;19930;-61
2022/12/10 01:04:16;;;;;;;;;;;;;;;;;;5126437;27;20035;-61
2022/12/10 01:06:42;;;;;;;;;;;;;;;;;;5128032;27;20326;-61
2022/12/10 01:09:08;;;;;;;;;;;;;;;;;;5156754;27;19923;-61
2022/12/10 01:11:34;;;;;;;;;;;;;;;;;;5156181;27;19929;-59
2022/12/10 01:14:00;;;;;;;;;;;;;;;;;;5156540;27;20411;-61
2022/12/10 01:16:26;;;;;;;;;;;;;;;;;;5158303;27;19930;-61
2022/12/10 01:18:52;;;;;;;;;;;;;;;;;;5157151;27;19923;-60
2022/12/10 01:21:18;;;;;;;;;;;;;;;;;;5160984;27;19923;-61
2022/12/10 01:23:44;;;;;;;;;;;;;;;;;;5152032;27;19924;-61
2022/12/10 01:26:10;;;;;;;;;;;;;;;;;;5152093;27;19927;-61
2022/12/10 01:28:35;;;;;;;;;;;;;;;;;;5158901;27;20365;-61
2022/12/10 01:31:01;;;;;;;;;;;;;;;;;;5159701;27;20017;-60
2022/12/10 01:33:27;;;;;;;;;;;;;;;;;;5153495;27;19923;-61
2022/12/10 01:35:53;;;;;;;;;;;;;;;;;;5150426;27;19923;-59
2022/12/10 01:38:19;;;;;;;;;;;;;;;;;;5157282;27;19923;-59
2022/12/10 01:40:45;;;;;;;;;;;;;;;;;;5156955;27;19942;-59
2022/12/10 01:43:11;;;;;;;;;;;;;;;;;;5157170;27;20591;-60
2022/12/10 01:45:37;;;;;;;;;;;;;;;;;;5158293;27;19930;-59
2022/12/10 01:48:03;;;;;;;;;;;;;;;;;;5147024;27;20063;-60
2022/12/10 01:50:29;;;;;;;;;;;;;;;;;;5147935;27;20388;-60
2022/12/10 01:52:54;;;;;;;;;;;;;;;;;;5154803;27;19933;-60
2022/12/10 01:55:20;;;;;;;;;;;;;;;;;;5146559;27;20021;-59
2022/12/10 01:57:46;;;;;;;;;;;;;;;;;;5155818;27;20089;-60
2022/12/10 02:00:12;;;;;;;;;;;;;;;;;;5154088;27;19966;-60
2022/12/10 02:02:40;;;;;;;;;;;;;;;;;;5147605;27;19927;-60
2022/12/10 02:05:06;;;;;;;;;;;;;;;;;;5128656;27;19947;-60
2022/12/10 02:07:32;;;;;;;;;;;;;;;;;;5154267;27;19923;-60
2022/12/10 02:09:58;;;;;;;;;;;;;;;;;;5146484;27;19923;-59
2022/12/10 02:12:24;;;;;;;;;;;;;;;;;;5146737;27;20265;-60
2022/12/10 02:14:50;;;;;;;;;;;;;;;;;;5146520;27;19961;-59
2022/12/10 02:17:16;;;;;;;;;;;;;;;;;;5146654;27;20397;-60
2022/12/10 02:19:42;;;;;;;;;;;;;;;;;;5157392;27;19962;-60
2022/12/10 02:22:08;;;;;;;;;;;;;;;;;;5147065;27;20015;-60
2022/12/10 02:24:34;;;;;;;;;;;;;;;;;;5146693;27;20466;-60
2022/12/10 02:27:00;;;;;;;;;;;;;;;;;;5150368;27;20051;-59
2022/12/10 02:29:26;;;;;;;;;;;;;;;;;;5145636;27;20285;-59
2022/12/10 02:31:52;;;;;;;;;;;;;;;;;;5151551;27;20017;-60
2022/12/10 02:34:18;;;;;;;;;;;;;;;;;;5158434;27;20060;-61
2022/12/10 02:36:44;;;;;;;;;;;;;;;;;;5146272;27;19930;-59
2022/12/10 02:39:09;;;;;;;;;;;;;;;;;;5146765;27;20094;-60
2022/12/10 02:41:35;;;;;;;;;;;;;;;;;;5147129;27;19923;-60
2022/12/10 02:44:01;;;;;;;;;;;;;;;;;;5146651;27;19927;-59
2022/12/10 02:46:28;;;;;;;;;;;;;;;;;;5154646;27;20357;-59
2022/12/10 02:48:54;;;;;;;;;;;;;;;;;;5152826;27;19929;-59
2022/12/10 02:51:20;;;;;;;;;;;;;;;;;;5150561;27;19931;-60
2022/12/10 02:53:46;;;;;;;;;;;;;;;;;;5150842;27;20795;-60
2022/12/10 02:56:12;;;;;;;;;;;;;;;;;;5153802;27;19933;-59
2022/12/10 02:58:37;;;;;;;;;;;;;;;;;;5155308;27;19982;-60
2022/12/10 03:01:03;;;;;;;;;;;;;;;;;;5152659;27;20021;-60
2022/12/10 03:03:29;;;;;;;;;;;;;;;;;;5154717;27;20022;-60
2022/12/10 03:05:55;;;;;;;;;;;;;;;;;;5152928;27;20595;-60
2022/12/10 03:08:21;;;;;;;;;;;;;;;;;;5150708;27;20051;-59
2022/12/10 03:10:47;;;;;;;;;;;;;;;;;;5153987;27;19923;-60
2022/12/10 03:13:13;;;;;;;;;;;;;;;;;;5154544;27;19923;-60
2022/12/10 03:15:39;;;;;;;;;;;;;;;;;;5152572;27;20419;-60
2022/12/10 03:18:05;;;;;;;;;;;;;;;;;;5157334;27;19929;-60
2022/12/10 03:20:31;;;;;;;;;;;;;;;;;;5157978;27;19923;-59
2022/12/10 03:22:57;;;;;;;;;;;;;;;;;;5157294;27;19930;-59
2022/12/10 03:25:22;;;;;;;;;;;;;;;;;;5155929;27;19923;-60
2022/12/10 03:27:49;;;;;;;;;;;;;;;;;;5158927;27;19923;-60
2022/12/10 03:30:15;;;;;;;;;;;;;;;;;;5157361;27;19923;-60
2022/12/10 03:32:41;;;;;;;;;;;;;;;;;;5158324;27;19934;-60
2022/12/10 03:35:07;;;;;;;;;;;;;;;;;;5156966;27;19979;-60
2022/12/10 03:37:34;;;;;;;;;;;;;;;;;;5156904;27;19964;-60
2022/12/10 03:40:00;;;;;;;;;;;;;;;;;;5157228;27;19934;-60
2022/12/10 03:42:25;;;;;;;;;;;;;;;;;;5154382;27;19927;-60
2022/12/10 03:44:51;;;;;;;;;;;;;;;;;;5157707;27;19926;-59
2022/12/10 03:47:17;;;;;;;;;;;;;;;;;;5157279;27;19923;-60
2022/12/10 03:49:43;;;;;;;;;;;;;;;;;;5157229;27;20424;-60
2022/12/10 03:52:09;;;;;;;;;;;;;;;;;;5156407;27;19930;-60
2022/12/10 03:54:35;;;;;;;;;;;;;;;;;;5156712;27;19923;-60
2022/12/10 03:57:01;;;;;;;;;;;;;;;;;;5157284;27;19927;-59
2022/12/10 03:59:27;;;;;;;;;;;;;;;;;;5154616;27;20351;-60
2022/12/10 04:01:53;;;;;;;;;;;;;;;;;;5157660;27;19930;-60
2022/12/10 04:04:19;;;;;;;;;;;;;;;;;;5158829;27;19923;-59
2022/12/10 04:06:44;;;;;;;;;;;;;;;;;;5158561;27;19988;-59
2022/12/10 04:09:10;;;;;;;;;;;;;;;;;;5158309;27;19966;-60
2022/12/10 04:11:36;;;;;;;;;;;;;;;;;;5154380;27;20002;-60
2022/12/10 04:16:47;;;;;;;;;;;;;;;;;;5155147;27;19927;-60
2022/12/10 04:19:13;;;;;;;;;;;;;;;;;;5157373;27;19923;-60
2022/12/10 04:27:08;;;;;;;;;;;;;;;;;;5157477;27;19923;-60
2022/12/10 04:29:34;;;;;;;;;;;;;;;;;;5154007;27;19922;-60
2022/12/10 04:32:00;;;;;;;;;;;;;;;;;;5155000;27;19931;-59
2022/12/10 04:34:26;;;;;;;;;;;;;;;;;;5152344;27;19971;-60
2022/12/10 04:36:52;;;;;;;;;;;;;;;;;;5156997;27;20428;-60
2022/12/10 04:39:17;;;;;;;;;;;;;;;;;;5154472;27;19923;-60
2022/12/10 04:41:43;;;;;;;;;;;;;;;;;;5153310;27;20418;-60
2022/12/10 04:44:09;;;;;;;;;;;;;;;;;;5156657;27;19930;-60
2022/12/10 04:46:35;;;;;;;;;;;;;;;;;;5156127;27;19968;-60
2022/12/10 04:49:01;;;;;;;;;;;;;;;;;;5155804;27;19979;-60
2022/12/10 04:51:27;;;;;;;;;;;;;;;;;;5153043;27;19929;-60
2022/12/10 04:53:53;;;;;;;;;;;;;;;;;;5153156;27;19946;-60
2022/12/10 04:56:19;;;;;;;;;;;;;;;;;;5154701;27;19931;-60
2022/12/10 04:58:45;;;;;;;;;;;;;;;;;;5155540;27;19938;-60
2022/12/10 05:01:12;;;;;;;;;;;;;;;;;;5156972;27;20011;-60
2022/12/10 05:03:38;;;;;;;;;;;;;;;;;;5156480;27;19960;-60
2022/12/10 05:06:04;;;;;;;;;;;;;;;;;;5155187;27;19923;-60
2022/12/10 05:08:30;;;;;;;;;;;;;;;;;;5151094;27;19931;-60
2022/12/10 05:10:56;;;;;;;;;;;;;;;;;;5156217;27;19929;-60
2022/12/10 05:13:21;;;;;;;;;;;;;;;;;;5155871;27;20537;-59
2022/12/10 05:15:47;;;;;;;;;;;;;;;;;;5154320;27;19956;-60
2022/12/10 05:18:13;;;;;;;;;;;;;;;;;;5153666;27;19922;-59
2022/12/10 05:20:39;;;;;;;;;;;;;;;;;;5153397;27;19945;-60
2022/12/10 05:25:52;;;;;;;;;;;;;;;;;;5154846;27;19923;-59
2022/12/10 05:28:18;;;;;;;;;;;;;;;;;;5152406;27;19923;-59
2022/12/10 05:30:44;;;;;;;;;;;;;;;;;;5157675;27;19953;-60
2022/12/10 05:33:10;;;;;;;;;;;;;;;;;;5152407;27;20285;-60
2022/12/10 05:35:36;;;;;;;;;;;;;;;;;;5153060;27;19934;-60
2022/12/10 05:38:02;;;;;;;;;;;;;;;;;;5156095;27;19934;-60
2022/12/10 05:40:28;;;;;;;;;;;;;;;;;;5154040;27;19946;-60
2022/12/10 05:42:54;;;;;;;;;;;;;;;;;;5155069;27;19923;-60
2022/12/10 05:45:20;;;;;;;;;;;;;;;;;;5153562;27;20607;-60
2022/12/10 05:47:45;;;;;;;;;;;;;;;;;;5155064;27;19931;-60
2022/12/10 05:50:11;;;;;;;;;;;;;;;;;;5153274;27;19934;-60
2022/12/10 05:52:37;;;;;;;;;;;;;;;;;;5152660;27;19958;-60
2022/12/10 05:55:03;;;;;;;;;;;;;;;;;;5153162;27;19929;-60
2022/12/10 05:57:29;;;;;;;;;;;;;;;;;;5152930;27;19934;-60
2022/12/10 05:59:55;;;;;;;;;;;;;;;;;;5154831;27;19930;-60
2022/12/10 06:02:21;;;;;;;;;;;;;;;;;;5155970;27;20309;-60
2022/12/10 06:04:47;;;;;;;;;;;;;;;;;;5155279;27;19927;-60
2022/12/10 06:07:13;;;;;;;;;;;;;;;;;;5151396;27;19923;-60
2022/12/10 06:09:39;;;;;;;;;;;;;;;;;;5153384;27;19923;-60
2022/12/10 06:12:04;;;;;;;;;;;;;;;;;;5153821;27;19931;-60
2022/12/10 06:14:30;;;;;;;;;;;;;;;;;;5156289;27;19978;-60
2022/12/10 06:16:59;;;;;;;;;;;;;;;;;;5146461;27;19948;-60
2022/12/10 06:19:25;;;;;;;;;;;;;;;;;;5147077;27;19923;-60
2022/12/10 06:21:51;;;;;;;;;;;;;;;;;;5156032;27;19923;-60
2022/12/10 06:24:17;;;;;;;;;;;;;;;;;;5154152;27;20562;-60
2022/12/10 06:26:43;;;;;;;;;;;;;;;;;;5152053;27;19924;-60
2022/12/10 06:29:09;;;;;;;;;;;;;;;;;;5150604;27;19939;-60
2022/12/10 06:31:35;;;;;;;;;;;;;;;;;;5154491;27;19923;-60
2022/12/10 06:34:01;;;;;;;;;;;;;;;;;;5153603;27;19930;-60
2022/12/10 06:36:27;;;;;;;;;;;;;;;;;;5151177;27;19968;-60
2022/12/10 06:38:52;;;;;;;;;;;;;;;;;;5155382;27;19922;-60
2022/12/10 06:41:20;;;;;;;;;;;;;;;;;;5152034;27;19923;-60
2022/12/10 06:43:46;;;;;;;;;;;;;;;;;;5152560;27;20393;-60
2022/12/10 06:46:12;;;;;;;;;;;;;;;;;;5152325;27;19977;-60
2022/12/10 06:48:38;;;;;;;;;;;;;;;;;;5152204;27;20017;-60
2022/12/10 06:51:04;;;;;;;;;;;;;;;;;;5155773;27;19975;-60
2022/12/10 06:53:30;;;;;;;;;;;;;;;;;;5157509;27;19934;-60
2022/12/10 06:55:55;;;;;;;;;;;;;;;;;;5156288;27;19948;-60
2022/12/10 06:58:21;;;;;;;;;;;;;;;;;;5156970;27;19931;-60
2022/12/10 07:00:47;;;;;;;;;;;;;;;;;;5159036;27;19927;-59
2022/12/10 07:03:13;;;;;;;;;;;;;;;;;;5158385;27;20647;-60
2022/12/10 07:05:39;;;;;;;;;;;;;;;;;;5160183;27;19926;-60
2022/12/10 07:08:05;;;;;;;;;;;;;;;;;;5156325;27;19923;-60
2022/12/10 07:10:31;;;;;;;;;;;;;;;;;;5155076;27;19923;-60
2022/12/10 07:12:57;;;;;;;;;;;;;;;;;;5156310;27;19922;-60
2022/12/10 07:15:23;;;;;;;;;;;;;;;;;;5159230;27;19927;-60
2022/12/10 07:17:49;;;;;;;;;;;;;;;;;;5157060;27;19931;-60
2022/12/10 07:20:15;;;;;;;;;;;;;;;;;;5157166;27;19930;-60
2022/12/10 07:22:41;;;;;;;;;;;;;;;;;;5159864;27;19930;-60
2022/12/10 07:25:07;;;;;;;;;;;;;;;;;;5160630;27;19922;-60
2022/12/10 07:27:33;;;;;;;;;;;;;;;;;;5157679;27;19933;-60
2022/12/10 07:29:59;;;;;;;;;;;;;;;;;;5154388;27;20335;-60
2022/12/10 07:32:25;;;;;;;;;;;;;;;;;;5159193;27;20341;-60
2022/12/10 07:34:50;;;;;;;;;;;;;;;;;;5157626;27;19938;-60
2022/12/10 07:37:16;;;;;;;;;;;;;;;;;;5154087;27;19969;-60
2022/12/10 07:39:42;;;;;;;;;;;;;;;;;;5153639;27;19950;-60
2022/12/10 07:42:08;;;;;;;;;;;;;;;;;;5155714;27;19926;-60
2022/12/10 07:44:34;;;;;;;;;;;;;;;;;;5136058;27;19930;-60
2022/12/10 07:47:00;;;;;;;;;;;;;;;;;;5153537;27;20549;-60
2022/12/10 07:49:26;;;;;;;;;;;;;;;;;;5158576;27;19998;-60
2022/12/10 07:51:52;;;;;;;;;;;;;;;;;;5161597;27;19927;-60
2022/12/10 07:54:18;;;;;;;;;;;;;;;;;;5157640;27;19930;-60
2022/12/10 07:56:44;;;;;;;;;;;;;;;;;;5157213;27;19930;-60
2022/12/10 07:59:10;;;;;;;;;;;;;;;;;;5154843;27;19931;-60
2022/12/10 08:01:36;;;;;;;;;;;;;;;;;;5151426;27;19988;-60
2022/12/10 08:04:02;;;;;;;;;;;;;;;;;;5158202;27;20010;-60
2022/12/10 08:06:28;;;;;;;;;;;;;;;;;;5153677;27;20383;-60
2022/12/10 08:08:53;;;;;;;;;;;;;;;;;;5159087;27;19933;-60
2022/12/10 08:11:19;;;;;;;;;;;;;;;;;;5158430;27;19923;-59
2022/12/10 08:13:45;;;;;;;;;;;;;;;;;;5159260;27;19938;-60
2022/12/10 08:16:11;;;;;;;;;;;;;;;;;;5153282;27;19931;-60
2022/12/10 08:18:37;;;;;;;;;;;;;;;;;;5156113;27;19923;-60
2022/12/10 08:21:03;;;;;;;;;;;;;;;;;;5161588;27;19923;-60
2022/12/10 08:23:29;;;;;;;;;;;;;;;;;;5155118;27;20364;-60
2022/12/10 08:25:55;;;;;;;;;;;;;;;;;;5142225;27;19923;-60
2022/12/10 08:28:21;;;;;;;;;;;;;;;;;;5152485;27;19930;-60
2022/12/10 08:30:47;;;;;;;;;;;;;;;;;;5153363;27;19927;-60
2022/12/10 08:33:13;;;;;;;;;;;;;;;;;;5157121;27;20381;-60
2022/12/10 08:35:38;;;;;;;;;;;;;;;;;;5156345;27;19980;-60
2022/12/10 08:38:04;;;;;;;;;;;;;;;;;;5156434;27;20383;-60
2022/12/10 08:40:31;;;;;;;;;;;;;;;;;;5151821;27;19980;-60
2022/12/10 08:42:57;;;;;;;;;;;;;;;;;;5154999;27;19933;-60
2022/12/10 08:45:22;;;;;;;;;;;;;;;;;;5157572;27;20017;-60
2022/12/10 08:47:48;;;;;;;;;;;;;;;;;;5155891;27;20274;-60
2022/12/10 08:50:14;;;;;;;;;;;;;;;;;;5134292;27;19922;-60
2022/12/10 08:52:40;;;;;;;;;;;;;;;;;;5154934;27;19931;-61
2022/12/10 08:55:06;;;;;;;;;;;;;;;;;;5153705;27;20022;-60
2022/12/10 08:57:32;;;;;;;;;;;;;;;;;;5155289;27;20037;-60
2022/12/10 08:59:58;;;;;;;;;;;;;;;;;;5159368;27;19923;-60
2022/12/10 09:02:24;;;;;;;;;;;;;;;;;;5161181;27;19923;-60
2022/12/10 09:04:50;;;;;;;;;;;;;;;;;;5153720;27;19934;-60
2022/12/10 09:07:16;;;;;;;;;;;;;;;;;;5156523;27;19931;-61
2022/12/10 09:09:42;;;;;;;;;;;;;;;;;;5148088;27;19930;-60
2022/12/10 09:12:08;;;;;;;;;;;;;;;;;;5156467;27;20325;-59
2022/12/10 09:14:34;;;;;;;24.35;14.45;;;;;;;;;;5152937;27;20049;-57
2022/12/10 09:17:03;;;;;;;30.40;16.40;;;;;;;;;;5152124;27;20038;-60
2022/12/10 09:19:29;;;;;;;25.98;14.32;;;;;;;;;;5158081;27;20070;-60
2022/12/10 09:21:55;;;;;;;28.35;14.23;;;;;;;;;;5151944;27;20460;-60
2022/12/10 09:24:21;;;;;;;26.00;14.25;;;;;;;;;;5157760;27;20046;-60
2022/12/10 09:26:47;;;;;;;27.50;16.13;;;;;;;;;;5157287;27;20046;-60
2022/12/10 09:29:13;;;;;;;;;;;;;;;;;;5154111;27;20046;-60
2022/12/10 09:31:39;;;;;;;;;;;;;;;;;;5150279;27;20010;-60
2022/12/10 09:34:05;;;;;;;;;;;;;;;;;;5158449;27;20021;-60
2022/12/10 09:36:31;;;;;;;;;;;;;;;;;;5150150;27;20002;-60
2022/12/10 09:38:57;;;;;;;;;;;;;;;;;;5151859;27;20353;-60
2022/12/10 09:41:23;;;;;;;;;;;;;;;;;;5169793;27;19945;-65
2022/12/10 09:43:49;;;;;;;;;;;;;;;;;;5158082;27;20478;-66
2022/12/10 09:46:15;;;;;;;;;;;;;;;;;;5129882;27;19944;-60
2022/12/10 09:48:41;;;;;;;;;;;;;;;;;;5164069;27;20031;-60
2022/12/10 09:51:07;;;;;;;;;;;;;;;;;;5150242;27;20270;-60
2022/12/10 09:53:33;;;;;;;;;;;;;;;;;;5155811;27;19919;-59
2022/12/10 09:55:59;;;;;;;;;;;;;;;;;;5148685;27;20520;-60
2022/12/10 09:58:25;;;;;;;;;;;;;;;;;;5151800;27;19965;-60
2022/12/10 10:00:51;;;;;;;;;;;;;;;;;;5168131;27;19918;-60
2022/12/10 10:03:17;;;;;;;;;;;;;;;;;;5169295;27;20321;-60
2022/12/10 10:05:43;;;;;;;;;;;;;;;;;;5169897;27;19919;-60
2022/12/10 10:08:09;;;;;;;;;;;;;;;;;;5168872;27;19971;-61
2022/12/10 10:10:35;;;;;;;;;;;;;;;;;;5158132;27;19971;-60
2022/12/10 10:13:01;;;;;;;;;;;;;;;;;;5147139;27;20342;-60
2022/12/10 10:15:27;;;;;;;;;;;;;;;;;;5147618;27;19944;-59
2022/12/10 10:17:52;;;;;;;;;;;;;;;;;;5147968;27;19978;-60
2022/12/10 10:20:18;;;;;;;;;;;;;;;;;;5147167;27;19919;-59
2022/12/10 10:22:44;;;;;;;;;;;;;;;;;;5147896;27;19919;-59
2022/12/10 10:25:10;;;;;;;;;;;;;;;;;;5150105;27;19923;-59
2022/12/10 10:27:36;;;;;;;;;;;;;;;;;;5153121;27;19919;-59
2022/12/10 10:30:02;;;;;;;;;;;;;;;;;;5153491;27;20009;-59
2022/12/10 10:32:28;;;;;;;;;;;;;;;;;;5153260;27;19962;-59
2022/12/10 10:34:54;;;;;;;;;;;;;;;;;;5163990;27;20337;-60
2022/12/10 10:37:20;;;;;;;;;;;;;;;;;;5172226;27;20184;-60
2022/12/10 10:39:46;;;;;;;;;;;;;;;;;;5159378;27;20014;-60
2022/12/10 10:42:12;;;;;;;;;;;;;;;;;;5163071;27;19925;-60
2022/12/10 10:44:38;;;;;;;;;;;;;;;;;;5157648;27;20545;-59
2022/12/10 10:47:03;;;;;;;;;;;;;;;;;;5170855;27;19925;-60
2022/12/10 10:49:29;;;;;;;;;;;;;;;;;;5151776;27;20017;-60
2022/12/10 10:51:55;;;;;;;;;;;;;;;;;;5156352;27;20015;-60
2022/12/10 10:54:21;;;;;;;;;;;;;;;;;;5173794;27;19919;-59
2022/12/10 10:56:47;;;;;;;;;;;;;;;;;;5173262;27;19963;-59
2022/12/10 10:59:15;;;;;;;;;;;;;;;;;;5173512;27;20421;-59
2022/12/10 11:01:41;;;;;;;;;;;;;;;;;;5172033;27;20559;-60
2022/12/10 11:04:07;;;;;;;;;;;;;;;;;;5153233;27;19922;-59
2022/12/10 11:06:33;;;;;;;;;;;;;;;;;;5161690;27;19918;-59
2022/12/10 11:08:59;;;;;;;;;;;;;;;;;;5154331;27;19922;-59
2022/12/10 11:11:25;;;;;;;;;;;;;;;;;;5150923;27;19919;-59
2022/12/10 11:13:51;;;;;;;;;;;;;;;;;;5151918;27;20304;-59
2022/12/10 11:16:16;;;;;;;;;;;;;;;;;;5153857;27;19923;-60
2022/12/10 11:18:42;;;;;;;;;;;;;;;;;;5167423;27;19926;-60
2022/12/10 11:21:09;;;;;;;;;;;;;;;;;;5173259;27;19922;-60
2022/12/10 11:23:34;;;;;;;;;;;;;;;;;;5152228;27;19997;-60
2022/12/10 11:26:00;;;;;;;;;;;;;;;;;;5151660;27;19930;-60
2022/12/10 11:28:26;;;;;;;;;;;;;;;;;;5151664;27;19926;-59
2022/12/10 11:30:52;;;;;;;;;;;;;;;;;;5151036;27;19926;-59
2022/12/10 11:33:18;;;;;;;;;;;;;;;;;;5159602;27;20292;-59
2022/12/10 11:35:44;;;;;;;;;;;;;;;;;;5152722;27;19923;-59
2022/12/10 11:38:10;;;;;;;;;;;;;;;;;;5154903;27;20154;-58
2022/12/10 11:40:36;;;;;;;;;;;;;;;;;;5156798;27;19919;-58
2022/12/10 11:43:02;;;;;;;;;;;;;;;;;;5159190;27;19925;-58
2022/12/10 11:45:28;;;;;;;;;;;;;;;;;;5157259;27;20011;-58
2022/12/10 11:47:54;;;;;;;;;;;;;;;;;;5157463;27;19919;-58
2022/12/10 11:50:19;;;;;;;;;;;;;;;;;;5157411;27;19927;-58
2022/12/10 11:52:45;;;;;;;;;;;;;;;;;;5153406;27;19918;-58
2022/12/10 11:55:11;;;;;;;;;;;;;;;;;;5159211;27;19919;-58
2022/12/10 11:57:37;;;;;;;;;;;;;;;;;;5157702;27;19971;-58
2022/12/10 12:00:04;;;;;;;;;;;;;;;;;;5148945;27;19919;-57
2022/12/10 12:02:29;;;;;;;;;;;;;;;;;;5159552;27;19923;-57
2022/12/10 12:04:55;;;;;;;;;;;;;;;;;;5164789;27;19925;-57
2022/12/10 12:07:21;;;;;;;;;;;;;;;;;;5157736;27;19927;-58
2022/12/10 12:09:47;;;;;;;;;;;;;;;;;;5154549;27;19919;-58
2022/12/10 12:12:13;;;;;;;;;;;;;;;;;;5149721;27;20250;-59
2022/12/10 12:14:39;;;;;;;;;;;;;;;;;;5149664;27;19923;-59
2022/12/10 12:17:05;;;;;;;;;;;;;;;;;;5150474;27;19919;-59
2022/12/10 12:19:31;;;;;;;;;;;;;;;;;;5155528;27;19930;-59
2022/12/10 12:21:57;;;;;;;;;;;;;;;;;;5162899;27;20278;-60
2022/12/10 12:24:23;;;;;;;;;;;;;;;;;;5151505;27;19926;-60
2022/12/10 12:26:49;;;;;;;;;;;;;;;;;;5157361;27;19937;-60
2022/12/10 12:29:15;;;;;;;;;;;;;;;;;;5166581;27;19945;-60
2022/12/10 12:31:40;;;;;;;;;;;;;;;;;;5172122;27;20312;-60
2022/12/10 12:34:06;;;;;;;;;;;;;;;;;;5157496;27;19929;-60
2022/12/10 12:36:34;;;;;;;;;;;;;;;;;;5150994;27;19919;-60
2022/12/10 12:39:00;;;;;;;;;;;;;;;;;;5159728;27;20150;-61
2022/12/10 12:41:26;;;;;;;;;;;;;;;;;;5150397;27;19919;-60
2022/12/10 12:43:52;;;;;;;;;;;;;;;;;;5151105;27;20488;-60
2022/12/10 12:46:18;;;;;;;;;;;;;;;;;;5153123;27;19918;-61
2022/12/10 12:48:44;;;;;;;;;;;;;;;;;;5153040;27;19925;-60
2022/12/10 12:51:10;;;;;;;;;;;;;;;;;;5169648;27;19971;-61
2022/12/10 12:53:35;;;;;;;;;;;;;;;;;;5161729;27;19922;-61
2022/12/10 12:56:02;;;;;;;;;;;;;;;;;;5161567;27;19944;-60
2022/12/10 12:58:28;;;;;;;;;;;;;;;;;;5152207;27;19942;-60
2022/12/10 13:00:54;;;;;;;;;;;;;;;;;;5171600;27;19926;-60
2022/12/10 13:03:20;;;;;;;;;;;;;;;;;;5154758;27;19938;-60
2022/12/10 13:05:46;;;;;;;;;;;;;;;;;;5151326;27;19926;-61
2022/12/10 13:08:12;;;;;;;;;;;;;;;;;;5161841;27;19927;-60
2022/12/10 13:10:38;;;;;;;;;;;;;;;;;;5170808;27;19919;-60
2022/12/10 13:13:04;;;;;;;;;;;;;;;;;;5161598;27;20300;-60
2022/12/10 13:15:29;;;;;;;;;;;;;;;;;;5150053;27;19927;-60
2022/12/10 13:17:55;;;;;;;;;;;;;;;;;;5149390;27;19919;-60
2022/12/10 13:20:21;;;;;;;;;;;;;;;;;;5150415;27;19919;-60
2022/12/10 13:22:47;;;;;;;;;;;;;;;;;;5154592;27;20509;-60
2022/12/10 13:25:13;;;;;;;;;;;;;;;;;;5150333;27;20285;-60
2022/12/10 13:27:39;;;;;;;;;;;;;;;;;;5150510;27;20376;-60
2022/12/10 13:30:05;;;;;;;;;;;;;;;;;;5149564;27;19949;-60
2022/12/10 13:32:31;;;;;;;;;;;;;;;;;;5150035;27;19919;-60
2022/12/10 13:34:57;;;;;;;;;;;;;;;;;;5150347;27;19919;-60
2022/12/10 13:37:23;;;;;;;;;;;;;;;;;;5154340;27;19944;-60
2022/12/10 13:39:49;;;;;;;;;;;;;;;;;;5153156;27;19987;-60
2022/12/10 13:44:59;;;;;;;;;;;;;;;;;;5154083;27;19923;-60
2022/12/10 13:47:26;;;;;;;;;;;;;;;;;;5157525;27;19918;-63
2022/12/10 13:49:52;;;;;;;;;;;;;;;;;;5155172;27;20289;-64
2022/12/10 13:52:18;;;;;;;;;;;;;;;;;;5152753;27;19918;-61
2022/12/10 13:54:44;;;;;;;;;;;;;;;;;;5153667;27;19927;-61
2022/12/10 13:57:10;;;;;;;;;;;;;;;;;;5152298;27;19923;-60
2022/12/10 13:59:36;;;;;;;;;;;;;;;;;;5152929;27;20274;-59
2022/12/10 14:02:02;;;;;;;;;;;;;;;;;;5150155;27;19919;-60
2022/12/10 14:04:28;;;;;;;;;;;;;;;;;;5154323;27;19923;-61
2022/12/10 14:06:54;;;;;;;;;;;;;;;;;;5148229;27;19919;-59
2022/12/10 14:09:27;;;;;;;22.38;11.43;;;;;;;;;;5152601;27;20290;-60
2022/12/10 14:11:55;;;;;;;26.60;12.60;;;;;;;;;;5126238;27;20376;-59
2022/12/10 14:14:27;;;;;;;21.25;11.07;;;;;;;;;;5132837;27;20134;-60
2022/12/10 14:16:54;;;;;;;23.33;12.05;;;;;;;;;;5135062;27;20040;-60
2022/12/10 14:19:20;;;;;;;23.45;11.13;;;;;;;;;;5129997;27;20078;-60
2022/12/10 14:21:47;;;;;;;22.20;11.30;;;;;;;;;;5143073;27;20046;-60
2022/12/10 14:24:13;;;;;;;;;;;;;;;;;;5128179;27;20061;-61
2022/12/10 14:26:39;;;;;;;26.10;13.20;;;;;;;;;;5126420;27;20385;-61
2022/12/10 14:29:08;;;;;;;28.85;14.18;;;;;;;;;;5133445;27;20035;-61
2022/12/10 14:31:40;;;;;;;22.95;12.60;;;;;;;;;;5128027;27;20096;-59
2022/12/10 14:34:06;;;;;;;;;;;;;;;;;;5126328;27;20039;-59
2022/12/10 14:36:32;;;;;;;;;;;;;;;;;;5138220;27;19930;-61
2022/12/10 14:38:58;;;;;;;;;;;;;;;;;;5131542;27;19931;-61
2022/12/10 14:41:24;;;;;;;;;;;;;;;;;;5134756;27;20046;-60
2022/12/10 14:43:50;;;;;;;;;;;;;;;;;;5136988;27;19934;-60
2022/12/10 14:46:16;;;;;;;;;;;;;;;;;;5131765;27;19923;-61
2022/12/10 14:48:45;;;;;;;;;;;;;;;;;;5137078;27;19923;-60
2022/12/10 14:51:11;;;;;;;;;;;;;;;;;;5138062;27;20326;-60
2022/12/10 14:53:37;;;;;;;;;;;;;;;;;;5129419;27;19928;-60
2022/12/10 14:56:04;;;;;;;;;;;;;;;;;;5131152;27;19923;-61
2022/12/10 14:58:29;;;;;;;;;;;;;;;;;;5133291;27;20501;-60
2022/12/10 15:00:55;;;;;;;;;;;;;;;;;;5141949;27;19965;-60
2022/12/10 15:03:21;;;;;;;;;;;;;;;;;;5124202;27;19987;-61
2022/12/10 15:05:47;;;;;;;;;;;;;;;;;;5135523;27;19931;-60
2022/12/10 15:08:13;;;;;;;;;;;;;;;;;;5133297;27;20413;-59
2022/12/10 15:10:39;;;;;;;;;;;;;;;;;;5137208;27;19994;-59
2022/12/10 15:13:05;;;;;;;;;;;;;;;;;;5129943;27;19931;-59
2022/12/10 15:15:31;;;;;;;;;;;;;;;;;;5130772;27;20034;-60
2022/12/10 15:17:57;;;;;;;;;;;;;;;;;;5132527;27;19930;-60
2022/12/10 15:20:23;;;;;;;;;;;;;;;;;;5139795;27;19924;-60
2022/12/10 15:22:49;;;;;;;;;;;;;;;;;;5132450;27;20381;-61
2022/12/10 15:25:15;;;;;;;;;;;;;;;;;;5131949;27;19935;-61
2022/12/10 15:27:41;;;;;;;;;;;;;;;;;;5130411;27;19931;-60
2022/12/10 15:30:07;;;;;;;;;;;;;;;;;;5133644;27;19950;-60
2022/12/10 15:32:33;;;;;;;;;;;;;;;;;;5135959;27;19930;-60
2022/12/10 15:34:59;;;;;;;;;;;;;;;;;;5132413;27;19966;-60
2022/12/10 15:37:25;;;;;;;;;;;;;;;;;;5137100;27;19931;-61
2022/12/10 15:39:51;;;;;;;;;;;;;;;;;;5137326;27;19953;-60
2022/12/10 15:42:16;;;;;;;;;;;;;;;;;;5137615;27;20396;-61
2022/12/10 15:44:42;;;;;;;;;;;;;;;;;;5136425;27;19923;-61
2022/12/10 15:47:08;;;;;;;;;;;;;;;;;;5137592;27;19923;-60
2022/12/10 15:49:34;;;;;;;;;;;;;;;;;;5135199;27;19927;-60
2022/12/10 15:52:00;;;;;;;;;;;;;;;;;;5140074;27;19927;-60
2022/12/10 15:54:26;;;;;;;;;;;;;;;;;;5134097;27;19923;-60
2022/12/10 15:56:52;;;;;;;;;;;;;;;;;;5145756;27;20247;-60
2022/12/10 15:59:18;;;;;;;;;;;;;;;;;;5134515;27;19927;-60
2022/12/10 16:01:44;;;;;;;;;;;;;;;;;;5136129;27;19927;-60
2022/12/10 16:04:10;;;;;;;;;;;;;;;;;;5130833;27;20427;-63
2022/12/10 16:06:36;;;;;;;;;;;;;;;;;;5134924;27;19930;-60
2022/12/10 16:09:01;;;;;;;;;;;;;;;;;;5138523;27;20344;-61
2022/12/10 16:11:28;;;;;;;;;;;;;;;;;;5139102;27;19923;-60
2022/12/10 16:13:55;;;;;;;;;;;;;;;;;;5128284;27;19930;-60
2022/12/10 16:16:21;;;;;;;;;;;;;;;;;;5132559;27;20318;-60
2022/12/10 16:18:47;;;;;;;;;;;;;;;;;;5133513;27;19997;-60
2022/12/10 16:21:13;;;;;;;;;;;;;;;;;;5133481;27;19982;-60
2022/12/10 16:23:39;;;;;;;;;;;;;;;;;;5142986;27;19927;-60
2022/12/10 16:26:05;;;;;;;;;;;;;;;;;;5133217;27;19930;-60
2022/12/10 16:28:31;;;;;;;;;;;;;;;;;;5131892;27;19931;-60
2022/12/10 16:30:57;;;;;;;;;;;;;;;;;;5134872;27;19927;-60
2022/12/10 16:33:23;;;;;;;;;;;;;;;;;;5135594;27;19923;-60
2022/12/10 16:35:49;;;;;;;;;;;;;;;;;;5135666;27;20491;-60
2022/12/10 16:38:15;;;;;;;;;;;;;;;;;;5131339;27;19968;-60
2022/12/10 16:40:40;;;;;;;;;;;;;;;;;;5133904;27;19938;-60
2022/12/10 16:43:06;;;;;;;;;;;;;;;;;;5132958;27;20013;-60